Science Garden, Philippines
Current Conditions -  °F | °C
As of 9:00 AM on Thursday 27 Nov 2014 (Local Time) from RPLL Reporting Station
Scattered Clouds Scattered Clouds  
Wind Chill: 73°   Ceiling: Unl
Heat Index: 73°   Visibility: 6mi
Dew Point: 72°   Wind: 3mph
Humidity: 94%   Direction: NA
Pressure: 29.85"   Gusts: NA
Location:  14.63°N, 121.02°E
Report Text: RPLL 270100Z VRB03KT 9999 FEW023CB FEW025 SCT300 23/22 Q1011 NOSIG RMK A2985
Loading
Personal Weather Stations






























Interactive Weather Map New forecast layout! Learn more

10-Day Weather Forecast

Advertisements
Track Severe Weather on mobile